Time;durP1;ratioP1;P1;durP2;ratioP2;P2;SDS_P1;SDS_P2;PMS_P1;PMS_P2;Temp;Humidity;BMP_temperature;BMP_pressure;BME280_temperature;BME280_humidity;BME280_pressure;Samples;Min_cycle;Max_cycle;Signal;HPM_P1;HPM_P2
2021/12/29 00:01:44;;;;;;;72.28;22.52;;;7.20;99.90;;;;;;4988975;28;20168;-86
2021/12/29 00:04:13;;;;;;;56.50;21.27;;;7.90;99.90;;;;;;5022854;28;20052;-87
2021/12/29 00:06:42;;;;;;;64.15;23.00;;;7.30;99.90;;;;;;5024063;28;20060;-85
2021/12/29 00:09:08;;;;;;;60.75;21.83;;;7.30;99.90;;;;;;5005571;28;20634;-86
2021/12/29 00:11:39;;;;;;;60.22;23.10;;;7.80;99.90;;;;;;5022834;28;20274;-86
2021/12/29 00:14:12;;;;;;;56.05;23.42;;;7.40;99.90;;;;;;5011327;28;20052;-86
2021/12/29 00:16:38;;;;;;;62.25;24.88;;;7.30;99.90;;;;;;5011776;28;20048;-87
2021/12/29 00:19:05;;;;;;;58.70;22.98;;;7.00;99.90;;;;;;5026379;28;20036;-86
2021/12/29 00:21:33;;;;;;;68.85;25.85;;;7.70;99.90;;;;;;5043719;28;20525;-86
2021/12/29 00:24:00;;;;;;;68.18;25.73;;;7.60;99.90;;;;;;5028544;28;20047;-86
2021/12/29 00:26:28;;;;;;;65.50;23.83;;;7.30;99.90;;;;;;5030265;28;20074;-86
2021/12/29 00:28:58;;;;;;;86.95;26.98;;;7.30;99.90;;;;;;5011930;28;20053;-86
2021/12/29 00:31:27;;;;;;;80.78;27.35;;;7.80;99.90;;;;;;5025056;28;20045;-86
2021/12/29 00:33:54;;;;;;;90.35;28.05;;;7.50;99.90;;;;;;5011789;28;20067;-87
2021/12/29 00:36:19;;;;;;;97.07;28.10;;;7.20;99.90;;;;;;5025815;28;20102;-86
2021/12/29 00:38:45;;;;;;;97.13;26.25;;;7.20;99.90;;;;;;5020597;28;20044;-86
2021/12/29 00:41:12;;;;;;;106.38;26.88;;;7.20;99.90;;;;;;5012027;28;20076;-86
2021/12/29 00:43:38;;;;;;;111.53;26.90;;;7.80;99.90;;;;;;5012988;28;20089;-86
2021/12/29 00:46:07;;;;;;;83.07;23.25;;;7.30;99.90;;;;;;5030206;28;20063;-86
2021/12/29 00:48:39;;;;;;;127.07;27.65;;;7.20;99.90;;;;;;5006328;28;20139;-86
2021/12/29 00:51:05;;;;;;;141.77;28.35;;;7.30;99.90;;;;;;5017812;28;20036;-86
2021/12/29 00:53:32;;;;;;;138.05;30.13;;;7.30;99.90;;;;;;5010771;28;20128;-86
2021/12/29 00:55:58;;;;;;;90.13;26.08;;;6.90;99.90;;;;;;5012640;28;20040;-87
2021/12/29 00:58:32;;;;;;;91.40;26.40;;;7.30;99.90;;;;;;5010910;28;20064;-84
2021/12/29 01:00:58;;;;;;;;;;;7.70;99.90;;;;;;5026343;28;20116;-86
2021/12/29 01:03:27;;;;;;;111.07;25.83;;;7.20;99.90;;;;;;5029374;28;20365;-86
2021/12/29 01:05:53;;;;;;;136.63;28.30;;;7.20;99.90;;;;;;5007649;28;20095;-87
2021/12/29 01:08:25;;;;;;;146.07;28.85;;;7.20;99.90;;;;;;5015846;28;20044;-86
2021/12/29 01:10:51;;;;;;;94.10;22.58;;;6.90;99.90;;;;;;5010605;28;20043;-86
2021/12/29 01:13:19;;;;;;;113.30;22.85;;;7.30;99.90;;;;;;5008629;28;20040;-88
2021/12/29 01:15:58;;;;;;;140.00;24.98;;;7.50;99.90;;;;;;5009575;28;20067;-86
2021/12/29 01:18:31;;;;;;;124.97;23.52;;;7.30;99.90;;;;;;5009804;28;20289;-86
2021/12/29 01:20:57;;;;;;;126.25;24.48;;;7.30;99.90;;;;;;5007666;28;20037;-86
2021/12/29 01:23:24;;;;;;;84.68;20.88;;;7.50;99.90;;;;;;5009401;28;20045;-86
2021/12/29 01:25:51;;;;;;;162.35;27.08;;;7.40;99.90;;;;;;4999098;28;20420;-86
2021/12/29 01:28:20;;;;;;;118.03;23.95;;;7.30;99.90;;;;;;5009580;28;20048;-84
2021/12/29 01:30:46;;;;;;;94.28;21.13;;;7.20;99.90;;;;;;5027355;28;20052;-86
2021/12/29 01:33:12;;;;;;;130.18;22.35;;;7.80;99.90;;;;;;5009730;28;20588;-86
2021/12/29 01:35:40;;;;;;;116.07;19.73;;;7.60;99.90;;;;;;5005009;28;20132;-86
2021/12/29 01:38:09;;;;;;;110.38;18.48;;;7.50;99.90;;;;;;5012058;28;20387;-86
2021/12/29 01:40:37;;;;;;;106.75;17.98;;;7.20;99.90;;;;;;4992279;28;20038;-86
2021/12/29 01:43:08;;;;;;;97.40;17.48;;;7.20;99.90;;;;;;5014425;28;20051;-87
2021/12/29 01:45:34;;;;;;;88.20;17.30;;;7.60;99.90;;;;;;5005635;28;20045;-86
2021/12/29 01:48:01;;;;;;;89.72;18.60;;;7.20;99.90;;;;;;5028270;28;20037;-86
2021/12/29 01:50:30;;;;;;;85.97;19.77;;;7.20;99.90;;;;;;5010883;28;20057;-86
2021/12/29 01:53:01;;;;;;;78.45;18.98;;;7.40;99.90;;;;;;5008661;28;20063;-86
2021/12/29 01:55:27;;;;;;;80.43;18.45;;;7.90;99.90;;;;;;5013288;28;20119;-86
2021/12/29 01:57:54;;;;;;;70.65;20.20;;;7.80;99.90;;;;;;5012288;28;20130;-86
2021/12/29 02:00:23;;;;;;;71.50;20.38;;;7.50;99.90;;;;;;5026725;28;20428;-86
2021/12/29 02:02:49;;;;;;;67.47;19.95;;;7.60;99.90;;;;;;5006495;28;20037;-87
2021/12/29 02:05:16;;;;;;;62.92;21.55;;;8.00;99.90;;;;;;5008034;28;20052;-86
2021/12/29 02:07:43;;;;;;;52.00;19.63;;;7.50;99.90;;;;;;5028746;28;20093;-86
2021/12/29 02:10:10;;;;;;;57.65;21.58;;;7.60;99.90;;;;;;5008872;28;20090;-87
2021/12/29 02:12:37;;;;;;;57.83;20.30;;;8.00;99.90;;;;;;5010255;28;20243;-86
2021/12/29 02:15:06;;;;;;;51.15;21.27;;;8.30;99.90;;;;;;5021585;28;20048;-85
2021/12/29 02:17:32;;;;;;;47.05;20.35;;;7.70;99.90;;;;;;5006203;28;20064;-86
2021/12/29 02:19:59;;;;;;;49.40;22.00;;;8.00;99.90;;;;;;5022416;28;20034;-86
2021/12/29 02:25:19;;;;;;;50.50;20.95;;;7.70;99.90;;;;;;5029906;28;20036;-84
2021/12/29 02:27:53;;;;;;;46.47;20.55;;;8.30;99.90;;;;;;4993939;28;20072;-86
2021/12/29 02:30:22;;;;;;;45.72;21.45;;;7.70;99.90;;;;;;5017323;28;20052;-86
2021/12/29 02:32:49;;;;;;;50.47;22.20;;;7.80;99.90;;;;;;5008366;28;20072;-87
2021/12/29 02:35:18;;;;;;;46.65;21.95;;;8.20;99.90;;;;;;5005283;28;20033;-86
2021/12/29 02:37:44;;;;;;;43.25;22.20;;;8.10;99.90;;;;;;4976178;28;20040;-86
2021/12/29 02:40:11;;;;;;;44.75;22.83;;;7.80;99.90;;;;;;4994168;28;20509;-86
2021/12/29 02:42:40;;;;;;;41.95;23.08;;;7.80;99.90;;;;;;4992835;28;20396;-85
2021/12/29 02:45:09;;;;;;;47.35;24.67;;;8.20;99.90;;;;;;4992477;28;20068;-86
2021/12/29 02:47:35;;;;;;;50.90;24.85;;;7.80;99.90;;;;;;5012801;28;20509;-86
2021/12/29 02:50:01;;;;;;;51.60;24.77;;;7.80;99.90;;;;;;5010624;28;20067;-86
2021/12/29 02:52:27;;;;;;;51.70;24.42;;;7.80;99.90;;;;;;4992699;28;20042;-87
2021/12/29 02:54:53;;;;;;;48.60;24.65;;;8.40;99.90;;;;;;5009596;28;20221;-86
2021/12/29 02:57:21;;;;;;;54.42;24.88;;;7.80;99.90;;;;;;4992068;28;20040;-85
2021/12/29 02:59:47;;;;;;;56.22;26.05;;;7.70;99.90;;;;;;4998754;28;20587;-86
2021/12/29 03:02:13;;;;;;;57.03;25.33;;;7.80;99.90;;;;;;4992614;28;20300;-86
2021/12/29 03:04:38;;;;;;;51.38;23.48;;;7.80;99.90;;;;;;4993647;28;20555;-86
2021/12/29 03:07:04;;;;;;;56.22;25.30;;;8.00;99.90;;;;;;5008094;28;20082;-86
2021/12/29 03:09:31;;;;;;;59.05;25.55;;;8.30;99.90;;;;;;5012855;28;20103;-85
2021/12/29 03:11:56;;;;;;;45.63;23.20;;;7.90;99.90;;;;;;5019944;28;20041;-85
2021/12/29 03:14:24;;;;;;;51.53;23.52;;;7.70;99.90;;;;;;4990976;28;20128;-86
2021/12/29 03:16:53;;;;;;;48.42;23.10;;;8.00;99.90;;;;;;5005374;28;20050;-88
2021/12/29 03:19:18;;;;;;;50.38;23.27;;;7.70;99.90;;;;;;4991690;28;20304;-86
2021/12/29 03:21:47;;;;;;;49.50;22.20;;;8.30;99.90;;;;;;5023775;28;20397;-86
2021/12/29 03:24:19;;;;;;;53.20;23.52;;;8.10;99.90;;;;;;5001986;28;20144;-85
2021/12/29 03:26:45;;;;;;;54.47;21.50;;;7.70;99.90;;;;;;5006367;28;20295;-86
2021/12/29 03:29:11;;;;;;;44.40;19.95;;;7.80;99.90;;;;;;5002626;28;20287;-86
2021/12/29 03:31:41;;;;;;;41.95;20.20;;;7.70;99.90;;;;;;5026901;28;20112;-86
2021/12/29 03:34:07;;;;;;;44.20;21.52;;;7.70;99.90;;;;;;5012385;28;20036;-86
2021/12/29 03:36:33;;;;;;;46.72;22.00;;;7.70;99.90;;;;;;5008171;28;20037;-86
2021/12/29 03:39:02;;;;;;;44.33;22.08;;;8.00;99.90;;;;;;5027567;28;20043;-86
2021/12/29 03:41:28;;;;;;;43.55;21.38;;;7.70;99.90;;;;;;5011225;28;20041;-86
2021/12/29 03:43:54;;;;;;;49.97;23.25;;;7.80;99.90;;;;;;5008200;28;20036;-86
2021/12/29 03:46:20;;;;;;;56.47;24.38;;;8.30;99.90;;;;;;5025641;28;20041;-86
2021/12/29 03:48:48;;;;;;;55.65;25.52;;;7.70;99.90;;;;;;5013984;28;20077;-86
2021/12/29 03:51:14;;;;;;;57.22;24.48;;;7.70;99.90;;;;;;5015485;28;20036;-86
2021/12/29 03:53:40;;;;;;;50.30;24.88;;;7.70;99.90;;;;;;5019997;28;20417;-86
2021/12/29 03:56:08;;;;;;;49.15;24.05;;;7.70;99.90;;;;;;5012048;28;20037;-86
2021/12/29 03:58:34;;;;;;;49.85;23.65;;;7.90;99.90;;;;;;4996307;28;20037;-86
2021/12/29 04:01:05;;;;;;;48.72;22.58;;;7.70;99.90;;;;;;5010801;28;20076;-86
2021/12/29 04:03:34;;;;;;;47.90;21.63;;;7.70;99.90;;;;;;5013773;28;20037;-86
2021/12/29 04:06:00;;;;;;;51.85;21.88;;;7.70;99.90;;;;;;5011857;28;20400;-86
2021/12/29 04:08:29;;;;;;;44.85;20.42;;;7.70;99.90;;;;;;5011527;28;20131;-88
2021/12/29 04:10:55;;;;;;;46.40;20.02;;;7.70;99.90;;;;;;5010483;28;20042;-86
2021/12/29 04:13:22;;;;;;;48.35;19.70;;;8.10;99.90;;;;;;5027798;28;20346;-86
2021/12/29 04:15:48;;;;;;;41.90;19.88;;;7.70;99.90;;;;;;5014143;28;20059;-85
2021/12/29 04:18:26;;;;;;;40.83;18.48;;;7.70;99.90;;;;;;5009075;28;20497;-86
2021/12/29 04:20:54;;;;;;;45.40;20.88;;;7.70;99.90;;;;;;5011857;28;20136;-86
2021/12/29 04:23:27;;;;;;;41.63;19.52;;;7.80;99.90;;;;;;5020898;28;20052;-86
2021/12/29 04:25:55;;;;;;;47.20;19.00;;;8.50;99.90;;;;;;5010111;28;20331;-86
2021/12/29 04:28:23;;;;;;;40.03;17.67;;;7.80;99.90;;;;;;5014134;28;20063;-86
2021/12/29 04:31:08;;;;;;;44.75;19.33;;;7.70;99.90;;;;;;5009578;28;20040;-86
2021/12/29 04:33:36;;;;;;;33.83;16.95;;;8.40;99.90;;;;;;5015440;28;20052;-86
2021/12/29 04:36:04;;;;;;;37.42;18.85;;;7.70;99.90;;;;;;5021226;28;20045;-87
2021/12/29 04:38:33;;;;;;;39.53;18.13;;;8.30;99.90;;;;;;5031104;28;20074;-86
2021/12/29 04:40:59;;;;;;;34.35;17.95;;;7.70;99.90;;;;;;5000411;28;20087;-87
2021/12/29 04:43:25;;;;;;;34.22;18.63;;;7.70;99.90;;;;;;5012673;28;20041;-86
2021/12/29 04:45:54;;;;;;;41.30;19.27;;;8.50;99.90;;;;;;4994905;28;20044;-85
2021/12/29 04:48:22;;;;;;;40.30;18.90;;;7.70;99.90;;;;;;5008597;28;20491;-86
2021/12/29 04:50:52;;;;;;;40.53;18.20;;;7.70;99.90;;;;;;5010585;28;20227;-86
2021/12/29 04:53:20;;;;;;;41.50;18.25;;;7.90;99.90;;;;;;5010274;28;20049;-85
2021/12/29 04:55:49;;;;;;;43.22;19.27;;;7.70;99.90;;;;;;5023128;28;20049;-86
2021/12/29 04:58:16;;;;;;;51.58;21.30;;;7.70;99.90;;;;;;5025392;28;20049;-87
2021/12/29 05:00:42;;;;;;;50.83;20.38;;;7.90;99.90;;;;;;5028057;28;20033;-86
2021/12/29 05:03:08;;;;;;;47.20;19.77;;;8.10;99.90;;;;;;5016819;28;20042;-86
2021/12/29 05:10:46;;;;;;;51.22;20.75;;;7.70;99.90;;;;;;5058097;28;20387;-60
2021/12/29 05:13:14;;;;;;;57.13;19.30;;;7.70;99.90;;;;;;5056091;28;20072;-59
2021/12/29 05:15:40;;;;;;;63.20;20.55;;;7.80;99.90;;;;;;5053314;28;20044;-58
2021/12/29 05:18:06;;;;;;;59.88;21.92;;;7.80;99.90;;;;;;5054489;28;20253;-59
2021/12/29 05:20:32;;;;;;;62.88;21.35;;;7.80;99.90;;;;;;5054778;28;20048;-57
2021/12/29 05:22:59;;;;;;;55.17;20.65;;;7.70;99.90;;;;;;5050989;28;20083;-59
2021/12/29 05:25:26;;;;;;;60.17;21.30;;;7.80;99.90;;;;;;5065814;28;20036;-58
2021/12/29 05:27:52;;;;;;;69.00;23.38;;;7.80;99.90;;;;;;5050162;28;20045;-59
2021/12/29 05:30:18;;;;;;;60.63;20.88;;;7.80;99.90;;;;;;5054576;28;20083;-59
2021/12/29 05:32:44;;;;;;;72.30;21.10;;;7.70;99.90;;;;;;5052493;28;20048;-60
2021/12/29 05:35:10;;;;;;;64.15;21.30;;;7.80;99.90;;;;;;5048239;28;20089;-60
2021/12/29 05:37:36;;;;;;;63.35;21.23;;;7.80;99.90;;;;;;5053474;28;20517;-58
2021/12/29 05:40:04;;;;;;;57.92;20.95;;;7.80;99.90;;;;;;5053926;28;20110;-59
2021/12/29 05:42:29;;;;;;;64.18;22.17;;;7.80;99.90;;;;;;5043350;28;20079;-59
2021/12/29 05:44:55;;;;;;;62.75;20.48;;;7.70;99.90;;;;;;5050010;28;20045;-60
2021/12/29 05:47:21;;;;;;;69.30;20.42;;;7.70;99.90;;;;;;5056094;28;20043;-60
2021/12/29 05:49:46;;;;;;;71.40;22.67;;;7.70;99.90;;;;;;5052509;28;20112;-60
2021/12/29 05:52:15;;;;;;;69.57;20.70;;;7.80;99.90;;;;;;5047311;28;20076;-60
2021/12/29 05:54:41;;;;;;;64.28;19.45;;;7.70;99.90;;;;;;5051126;28;20051;-60
2021/12/29 05:57:07;;;;;;;61.05;19.88;;;7.70;99.90;;;;;;5050393;28;20040;-59
2021/12/29 05:59:33;;;;;;;69.20;22.08;;;7.70;99.90;;;;;;5055779;28;20043;-59
2021/12/29 06:01:59;;;;;;;70.10;21.13;;;7.70;99.90;;;;;;5040591;28;20048;-58
2021/12/29 06:04:24;;;;;;;67.95;20.50;;;7.70;99.90;;;;;;5045725;28;20384;-59
2021/12/29 06:06:50;;;;;;;72.30;22.25;;;7.80;99.90;;;;;;5049027;28;20036;-60
2021/12/29 06:09:16;;;;;;;77.65;23.25;;;7.80;99.90;;;;;;5048424;28;20469;-59
2021/12/29 06:11:41;;;;;;;67.85;22.13;;;7.80;99.90;;;;;;5047843;28;20033;-60
2021/12/29 06:14:07;;;;;;;66.30;21.02;;;7.80;99.90;;;;;;5055597;28;20028;-60
2021/12/29 06:16:33;;;;;;;72.38;22.33;;;7.80;99.90;;;;;;5045033;28;20032;-60
2021/12/29 06:18:59;;;;;;;71.97;22.60;;;7.80;99.90;;;;;;5052273;28;20062;-59
2021/12/29 06:21:24;;;;;;;69.47;21.00;;;7.80;99.90;;;;;;5050474;28;20482;-58
2021/12/29 06:23:50;;;;;;;71.22;21.80;;;7.80;99.90;;;;;;5053832;28;20032;-59
2021/12/29 06:26:16;;;;;;;51.97;17.55;;;7.70;99.90;;;;;;5055885;28;20033;-58
2021/12/29 06:28:43;;;;;;;70.07;21.90;;;7.80;99.90;;;;;;5055405;28;20040;-60
2021/12/29 06:31:10;;;;;;;64.82;21.20;;;7.80;99.90;;;;;;5049475;28;20526;-58
2021/12/29 06:33:35;;;;;;;51.15;16.77;;;7.80;99.90;;;;;;5045399;28;20151;-59
2021/12/29 06:36:01;;;;;;;73.70;19.95;;;7.80;99.90;;;;;;5050498;28;20139;-59
2021/12/29 06:38:27;;;;;;;70.03;20.33;;;7.80;99.90;;;;;;5043953;28;20036;-59
2021/12/29 06:40:52;;;;;;;69.43;21.23;;;7.80;99.90;;;;;;5045674;28;20034;-59
2021/12/29 06:43:18;;;;;;;76.82;23.63;;;7.90;99.90;;;;;;5041850;28;20177;-59
2021/12/29 06:45:44;;;;;;;80.13;23.17;;;7.80;99.90;;;;;;5043446;28;20033;-60
2021/12/29 06:48:09;;;;;;;58.65;20.92;;;7.70;99.90;;;;;;5048791;28;20047;-59
2021/12/29 06:50:35;;;;;;;60.88;19.63;;;7.70;99.90;;;;;;5039644;28;20483;-59
2021/12/29 06:53:01;;;;;;;58.50;19.45;;;7.70;99.90;;;;;;5048576;28;20082;-58
2021/12/29 06:55:27;;;;;;;63.25;19.65;;;7.70;99.90;;;;;;5047557;28;20369;-59
2021/12/29 06:57:53;;;;;;;66.25;20.23;;;7.70;99.90;;;;;;5047391;28;20591;-60
2021/12/29 07:00:19;;;;;;;70.50;18.92;;;7.70;99.90;;;;;;5055142;28;20063;-59
2021/12/29 07:02:45;;;;;;;70.85;19.58;;;7.70;99.90;;;;;;5046784;28;20098;-60
2021/12/29 07:05:11;;;;;;;78.53;20.38;;;7.70;99.90;;;;;;5044421;28;20709;-58
2021/12/29 07:07:37;;;;;;;76.53;20.30;;;7.70;99.90;;;;;;5055325;28;20206;-59
2021/12/29 07:10:05;;;;;;;70.30;20.02;;;7.70;99.90;;;;;;5037339;28;20037;-59
2021/12/29 07:12:31;;;;;;;103.07;23.08;;;7.70;99.90;;;;;;5045543;28;20494;-60
2021/12/29 07:14:56;;;;;;;99.95;22.15;;;7.70;99.90;;;;;;5045989;28;20112;-60
2021/12/29 07:17:22;;;;;;;92.45;21.35;;;7.70;99.90;;;;;;5040307;28;20047;-59
2021/12/29 07:19:48;;;;;;;99.35;21.38;;;7.70;99.90;;;;;;5031594;28;20033;-59
2021/12/29 07:22:14;;;;;;;75.15;19.52;;;7.70;99.90;;;;;;5046532;28;20098;-60
2021/12/29 07:24:39;;;;;;;90.53;19.80;;;7.70;99.90;;;;;;5052053;28;20094;-59
2021/12/29 07:27:05;;;;;;;96.13;20.70;;;7.70;99.90;;;;;;5057374;28;20120;-59
2021/12/29 07:29:31;;;;;;;73.28;18.88;;;7.70;99.90;;;;;;5060414;28;20063;-60
2021/12/29 07:32:02;;;;;;;95.93;19.15;;;7.70;99.90;;;;;;5053096;28;20079;-58
2021/12/29 07:34:28;;;;;;;61.78;16.58;;;7.70;99.90;;;;;;5058798;28;20048;-59
2021/12/29 07:36:54;;;;;;;67.20;17.75;;;7.70;99.90;;;;;;5045915;28;20046;-59
2021/12/29 07:39:21;;;;;;;71.72;16.35;;;7.70;99.90;;;;;;5056732;28;20133;-60
2021/12/29 07:41:48;;;;;;;70.60;15.13;;;7.70;99.90;;;;;;5063964;28;20677;-60
2021/12/29 07:44:16;;;;;;;58.38;15.25;;;7.70;99.90;;;;;;5057621;28;20467;-60
2021/12/29 07:46:44;;;;;;;71.70;14.95;;;7.70;99.90;;;;;;5064605;28;20119;-59
2021/12/29 07:49:09;;;;;;;101.63;17.45;;;7.70;99.90;;;;;;5058013;28;20100;-58
2021/12/29 07:51:35;;;;;;;125.72;19.30;;;7.70;99.90;;;;;;5063845;28;20560;-59
2021/12/29 07:54:02;;;;;;;74.55;14.93;;;7.70;99.90;;;;;;5053366;28;20033;-58
2021/12/29 07:56:27;;;;;;;63.78;14.73;;;7.80;99.90;;;;;;5052328;28;20127;-59
2021/12/29 07:58:53;;;;;;;112.57;19.38;;;7.70;99.90;;;;;;5063176;28;20510;-59
2021/12/29 08:01:19;;;;;;;70.60;15.00;;;7.80;99.90;;;;;;5055825;28;20046;-60
2021/12/29 08:03:45;;;;;;;79.95;16.52;;;7.70;99.90;;;;;;5039432;28;20387;-59
2021/12/29 08:06:11;;;;;;;83.30;17.10;;;7.80;99.90;;;;;;5056362;28;20207;-60
2021/12/29 08:08:37;;;;;;;98.28;16.45;;;7.80;99.90;;;;;;5053642;28;20285;-60
2021/12/29 08:11:02;;;;;;;99.90;16.60;;;7.80;99.90;;;;;;5055174;28;20037;-60
2021/12/29 08:13:28;;;;;;;90.28;16.98;;;7.80;99.90;;;;;;5052912;28;20036;-60
2021/12/29 08:15:54;;;;;;;116.07;18.08;;;7.80;99.90;;;;;;5059256;28;20033;-59
2021/12/29 08:18:20;;;;;;;98.47;16.75;;;7.80;99.90;;;;;;5042135;28;20274;-59
2021/12/29 08:20:45;;;;;;;65.32;15.20;;;7.80;99.90;;;;;;5056133;28;20048;-60
2021/12/29 08:23:11;;;;;;;83.03;15.35;;;7.90;99.90;;;;;;5061524;28;20062;-60
2021/12/29 08:25:38;;;;;;;86.13;16.23;;;7.80;99.90;;;;;;5056514;28;20672;-59
2021/12/29 08:28:04;;;;;;;79.95;15.70;;;7.90;99.90;;;;;;5060856;28;20064;-59
2021/12/29 08:30:31;;;;;;;68.95;14.45;;;7.80;99.90;;;;;;5045614;28;20064;-60
2021/12/29 08:32:56;;;;;;;53.17;13.27;;;7.90;99.90;;;;;;5044741;28;20040;-59
2021/12/29 08:35:22;;;;;;;42.50;12.88;;;7.90;99.90;;;;;;5043606;28;20068;-59
2021/12/29 08:37:49;;;;;;;50.05;13.48;;;7.90;99.90;;;;;;5040950;28;20040;-59
2021/12/29 08:40:16;;;;;;;56.47;14.88;;;7.90;99.90;;;;;;5031674;28;20134;-60
2021/12/29 08:42:42;;;;;;;47.30;12.98;;;7.90;99.90;;;;;;5045120;28;20136;-60
2021/12/29 08:45:11;;;;;;;32.13;11.20;;;7.90;99.90;;;;;;5057235;28;20577;-60
2021/12/29 08:47:37;;;;;;;38.78;12.88;;;7.90;99.90;;;;;;5051752;28;20041;-59
2021/12/29 08:50:06;;;;;;;37.90;12.32;;;7.90;99.90;;;;;;5050102;28;20041;-59
2021/12/29 08:52:33;;;;;;;35.45;12.32;;;7.90;99.90;;;;;;5034045;28;20059;-60
2021/12/29 08:54:59;;;;;;;36.25;12.15;;;7.90;99.90;;;;;;5049265;28;20715;-61
2021/12/29 08:57:24;;;;;;;33.17;11.95;;;7.90;99.90;;;;;;5060357;28;20033;-59
2021/12/29 08:59:50;;;;;;;37.53;12.40;;;7.90;99.90;;;;;;5056526;28;20041;-59
2021/12/29 09:02:16;;;;;;;37.60;12.13;;;7.90;99.90;;;;;;5054522;28;20532;-60
2021/12/29 09:04:42;;;;;;;32.38;11.70;;;7.90;99.90;;;;;;5053157;28;20068;-60
2021/12/29 09:07:08;;;;;;;33.30;11.65;;;7.90;99.90;;;;;;5043825;28;20044;-60
2021/12/29 09:09:34;;;;;;;34.72;12.52;;;8.00;99.90;;;;;;5058031;28;20116;-60
2021/12/29 09:11:59;;;;;;;33.90;12.02;;;8.00;99.90;;;;;;5054721;28;20111;-60
2021/12/29 09:14:25;;;;;;;33.40;11.85;;;8.00;99.90;;;;;;5056889;28;20036;-60
2021/12/29 09:16:51;;;;;;;30.25;10.27;;;8.00;99.90;;;;;;5057746;28;20111;-62
2021/12/29 09:19:17;;;;;;;30.17;11.60;;;8.00;99.90;;;;;;5046778;28;20172;-59
2021/12/29 09:21:44;;;;;;;27.25;10.48;;;8.00;99.90;;;;;;5018494;28;21235;-60
2021/12/29 09:24:11;;;;;;;35.72;10.85;;;8.00;99.90;;;;;;5041041;28;20379;-59
2021/12/29 09:26:38;;;;;;;25.38;10.07;;;8.00;99.90;;;;;;5042422;28;20052;-60
2021/12/29 09:29:03;;;;;;;30.63;10.25;;;8.00;99.90;;;;;;5046813;28;20501;-59
2021/12/29 09:31:30;;;;;;;31.00;11.35;;;8.00;99.90;;;;;;5056450;28;20037;-59
2021/12/29 09:33:56;;;;;;;29.88;11.95;;;8.00;99.90;;;;;;5053545;28;20068;-58
2021/12/29 09:36:23;;;;;;;28.08;11.02;;;8.00;99.90;;;;;;5054668;28;20091;-61
2021/12/29 09:38:50;;;;;;;28.92;11.35;;;8.00;99.90;;;;;;5053809;28;20463;-61
2021/12/29 09:41:18;;;;;;;23.80;10.30;;;8.00;99.90;;;;;;5043951;28;20078;-61
2021/12/29 09:43:45;;;;;;;28.02;10.05;;;8.10;99.90;;;;;;5045033;28;20032;-61
2021/12/29 09:46:14;;;;;;;26.98;10.68;;;8.10;99.90;;;;;;5046761;28;20040;-62
2021/12/29 09:48:41;;;;;;;33.35;10.25;;;8.10;99.90;;;;;;5044252;28;20071;-62
2021/12/29 09:51:13;;;;;;;26.83;9.98;;;8.10;99.90;;;;;;5044447;28;20037;-61
2021/12/29 09:53:40;;;;;;;26.75;9.85;;;8.10;99.90;;;;;;5040176;28;20052;-61
2021/12/29 09:56:07;;;;;;;29.25;9.57;;;8.10;99.90;;;;;;5044776;28;20033;-63
2021/12/29 09:58:32;;;;;;;25.02;9.70;;;8.10;99.90;;;;;;5047653;28;20047;-63
2021/12/29 10:01:02;;;;;;;29.17;9.88;;;8.10;99.90;;;;;;5053657;28;20471;-61
2021/12/29 10:03:28;;;;;;;23.35;8.80;;;8.10;99.90;;;;;;5049989;28;20029;-63
2021/12/29 10:05:57;;;;;;;28.65;8.57;;;8.10;99.90;;;;;;5036534;28;20040;-61
2021/12/29 10:08:29;;;;;;;22.67;8.35;;;8.10;99.90;;;;;;5054607;28;20880;-62
2021/12/29 10:11:04;;;;;;;30.83;9.23;;;8.10;99.90;;;;;;5045975;28;20125;-61
2021/12/29 10:13:33;;;;;;;28.40;8.45;;;8.10;99.90;;;;;;5056072;28;20052;-62
2021/12/29 10:16:06;;;;;;;24.13;7.85;;;8.10;99.90;;;;;;5052968;28;20093;-61
2021/12/29 10:18:36;;;;;;;20.30;7.53;;;8.20;99.90;;;;;;5058114;28;20051;-64
2021/12/29 10:21:12;;;;;;;30.73;8.25;;;8.20;99.90;;;;;;5043918;28;21315;-63
2021/12/29 10:23:57;;;;;;;24.80;7.57;;;8.20;99.90;;;;;;5053677;28;20058;-61
2021/12/29 10:26:26;;;;;;;27.27;7.68;;;8.20;99.90;;;;;;5058571;28;20041;-62
2021/12/29 10:28:56;;;;;;;27.98;8.40;;;8.20;99.90;;;;;;5046367;28;20528;-61
2021/12/29 10:31:28;;;;;;;21.83;7.97;;;8.20;99.90;;;;;;5050950;28;20044;-61
2021/12/29 10:33:56;;;;;;;24.63;7.53;;;8.20;99.90;;;;;;5056475;28;20037;-63
2021/12/29 10:36:54;;;;;;;23.30;8.13;;;8.20;99.90;;;;;;5053988;28;20033;-61
2021/12/29 10:39:25;;;;;;;22.17;7.40;;;8.20;99.90;;;;;;5028027;28;20057;-61
2021/12/29 10:41:59;;;;;;;25.75;6.95;;;8.10;99.90;;;;;;5057605;28;21386;-62
2021/12/29 10:44:33;;;;;;;20.05;6.80;;;8.10;99.90;;;;;;5057138;28;20048;-61
2021/12/29 10:47:02;;;;;;;21.63;7.25;;;8.10;99.90;;;;;;5053289;28;20098;-61
2021/12/29 10:49:29;;;;;;;24.10;7.68;;;8.10;99.90;;;;;;5062248;28;20044;-63
2021/12/29 10:51:59;;;;;;;28.40;7.10;;;8.10;99.90;;;;;;5041309;28;20760;-63
2021/12/29 10:54:27;;;;;;;31.27;7.60;;;8.00;99.90;;;;;;5058131;28;20076;-61
2021/12/29 10:56:58;;;;;;;31.60;8.68;;;8.10;99.90;;;;;;5057765;28;20070;-60
2021/12/29 10:59:30;;;;;;;21.60;6.97;;;8.00;99.90;;;;;;5059830;28;20075;-60
2021/12/29 11:01:56;;;;;;;22.27;6.60;;;8.00;99.90;;;;;;5054659;28;20114;-60
2021/12/29 11:04:24;;;;;;;30.27;8.32;;;8.00;99.90;;;;;;5056282;28;20048;-61
2021/12/29 11:06:55;;;;;;;32.72;7.07;;;8.00;99.90;;;;;;5060422;28;20044;-60
2021/12/29 11:09:32;;;;;;;24.45;6.80;;;8.00;99.90;;;;;;5067942;22;20048;-54
2021/12/29 11:12:00;;;;;;;32.47;8.82;;;8.00;99.90;;;;;;5053403;28;20037;-57
2021/12/29 11:14:32;;;;;;;28.30;6.57;;;8.00;99.90;;;;;;5048756;28;20098;-55
2021/12/29 11:17:07;;;;;;;34.08;6.22;;;8.00;99.90;;;;;;5056066;28;20041;-57
2021/12/29 11:19:34;;;;;;;24.73;6.60;;;8.00;99.90;;;;;;5052289;28;20029;-55
2021/12/29 11:22:07;;;;;;;28.73;5.82;;;8.00;99.90;;;;;;5051568;28;20029;-57
2021/12/29 11:24:33;;;;;;;27.05;6.40;;;8.10;99.90;;;;;;5056378;28;20041;-56
2021/12/29 11:26:59;;;;;;;28.55;6.28;;;8.10;99.90;;;;;;5048277;28;20044;-57
2021/12/29 11:29:25;;;;;;;22.45;6.45;;;8.10;99.90;;;;;;5052173;28;20036;-54
2021/12/29 11:32:01;;;;;;;23.63;6.00;;;8.10;99.90;;;;;;5053203;28;20052;-56
2021/12/29 11:34:28;;;;;;;26.27;5.82;;;8.20;99.90;;;;;;5035241;28;20036;-57
2021/12/29 11:37:20;;;;;;;27.63;6.00;;;8.10;99.90;;;;;;5041440;28;20036;-56
2021/12/29 11:39:46;;;;;;;26.63;5.97;;;8.10;99.90;;;;;;5038191;28;20465;-57
2021/12/29 11:42:13;;;;;;;23.95;5.50;;;8.10;99.90;;;;;;5059578;28;20040;-56
2021/12/29 11:44:39;;;;;;;25.10;5.30;;;8.20;99.90;;;;;;5044550;28;20045;-58
2021/12/29 11:47:08;;;;;;;18.75;4.80;;;8.10;99.90;;;;;;5034488;28;20449;-57
2021/12/29 11:49:34;;;;;;;21.88;5.80;;;8.10;99.90;;;;;;5059707;28;20037;-56
2021/12/29 11:52:09;;;;;;;23.90;5.88;;;8.20;99.90;;;;;;5039759;28;20036;-55
2021/12/29 11:54:47;;;;;;;24.15;5.60;;;8.20;99.90;;;;;;5058725;28;20068;-56
2021/12/29 11:57:16;;;;;;;24.73;5.85;;;8.20;99.90;;;;;;5041519;28;20040;-57
2021/12/29 11:59:42;;;;;;;27.95;5.45;;;8.20;99.90;;;;;;5061840;28;20250;-56
2021/12/29 12:02:08;;;;;;;22.73;5.85;;;8.20;99.90;;;;;;5050065;28;20328;-56
2021/12/29 12:04:35;;;;;;;19.33;5.63;;;8.20;99.90;;;;;;5050258;28;20094;-52
2021/12/29 12:07:10;;;;;;;18.88;5.72;;;8.20;99.90;;;;;;5043419;28;20040;-55
2021/12/29 12:09:50;;;;;;;19.25;5.22;;;8.20;99.90;;;;;;5053213;28;20123;-56
2021/12/29 12:12:16;;;;;;;24.85;7.47;;;8.20;99.90;;;;;;5065004;28;20041;-53
2021/12/29 12:14:50;;;;;;;18.70;5.57;;;8.10;99.90;;;;;;5037286;28;20059;-54
2021/12/29 12:17:19;;;;;;;17.55;6.18;;;8.10;99.90;;;;;;5053002;28;20057;-58
2021/12/29 12:19:57;;;;;;;20.50;5.72;;;8.10;99.90;;;;;;5039425;28;20066;-57
2021/12/29 12:22:23;;;;;;;19.13;7.03;;;8.10;99.90;;;;;;5038580;28;20125;-57
2021/12/29 12:24:52;;;;;;;19.70;7.55;;;8.10;99.90;;;;;;5060019;28;20127;-54
2021/12/29 12:27:30;;;;;;;19.02;7.45;;;8.10;99.90;;;;;;5055158;28;20626;-57
2021/12/29 12:30:04;;;;;;;24.75;7.70;;;8.10;99.90;;;;;;5057207;28;20040;-54
2021/12/29 12:32:47;;;;;;;19.38;7.30;;;8.10;99.90;;;;;;5035965;28;20086;-55
2021/12/29 12:35:35;;;;;;;15.38;7.03;;;8.10;99.90;;;;;;5052807;28;20368;-57
2021/12/29 12:38:22;;;;;;;17.27;6.50;;;8.10;99.90;;;;;;5034537;28;20056;-59
2021/12/29 12:41:08;;;;;;;15.93;6.38;;;8.10;99.90;;;;;;5068912;28;20044;-54
2021/12/29 12:43:47;;;;;;;15.63;5.90;;;8.10;99.90;;;;;;5058472;28;20241;-57
2021/12/29 12:46:13;;;;;;;13.07;6.07;;;8.10;99.90;;;;;;5069456;28;20129;-54
2021/12/29 12:48:40;;;;;;;14.07;5.80;;;8.10;99.90;;;;;;5058633;28;20056;-54
2021/12/29 12:51:18;;;;;;;15.77;6.00;;;8.10;99.90;;;;;;5062694;28;20392;-59